sensor_id;sensor_type;location;lat;lon;timestamp;P1;durP1;ratioP1;P2;durP2;ratioP2
67757;SDS011;54562;47.620;18.786;2022-10-30T00:01:05;48.60;;;21.50;;
67757;SDS011;54562;47.620;18.786;2022-10-30T00:04:13;65.00;;;23.40;;
67757;SDS011;54562;47.620;18.786;2022-10-30T00:07:22;95.30;;;22.30;;
67757;SDS011;54562;47.620;18.786;2022-10-30T00:10:30;58.50;;;22.30;;
67757;SDS011;54562;47.620;18.786;2022-10-30T00:13:40;61.70;;;23.70;;
67757;SDS011;54562;47.620;18.786;2022-10-30T00:16:49;86.60;;;22.60;;
67757;SDS011;54562;47.620;18.786;2022-10-30T00:19:57;76.70;;;22.70;;
67757;SDS011;54562;47.620;18.786;2022-10-30T00:23:06;63.00;;;22.70;;
67757;SDS011;54562;47.620;18.786;2022-10-30T00:26:16;71.10;;;23.10;;
67757;SDS011;54562;47.620;18.786;2022-10-30T00:29:25;123.80;;;22.40;;
67757;SDS011;54562;47.620;18.786;2022-10-30T00:32:33;71.50;;;20.90;;
67757;SDS011;54562;47.620;18.786;2022-10-30T00:35:48;101.50;;;21.30;;
67757;SDS011;54562;47.620;18.786;2022-10-30T00:38:56;59.50;;;21.40;;
67757;SDS011;54562;47.620;18.786;2022-10-30T00:42:05;93.80;;;21.50;;
67757;SDS011;54562;47.620;18.786;2022-10-30T00:45:16;43.80;;;20.90;;
67757;SDS011;54562;47.620;18.786;2022-10-30T00:48:26;45.80;;;21.10;;
67757;SDS011;54562;47.620;18.786;2022-10-30T00:51:35;36.20;;;18.80;;
67757;SDS011;54562;47.620;18.786;2022-10-30T00:54:45;44.50;;;21.10;;
67757;SDS011;54562;47.620;18.786;2022-10-30T00:57:54;57.90;;;20.30;;
67757;SDS011;54562;47.620;18.786;2022-10-30T01:01:06;40.50;;;21.80;;
67757;SDS011;54562;47.620;18.786;2022-10-30T01:04:19;95.30;;;22.80;;
67757;SDS011;54562;47.620;18.786;2022-10-30T01:07:33;106.10;;;21.60;;
67757;SDS011;54562;47.620;18.786;2022-10-30T01:10:42;70.80;;;22.30;;
67757;SDS011;54562;47.620;18.786;2022-10-30T01:13:51;42.60;;;22.20;;
67757;SDS011;54562;47.620;18.786;2022-10-30T01:17:20;51.80;;;21.10;;
67757;SDS011;54562;47.620;18.786;2022-10-30T01:24:40;49.00;;;22.00;;
67757;SDS011;54562;47.620;18.786;2022-10-30T01:28:06;48.90;;;21.90;;
67757;SDS011;54562;47.620;18.786;2022-10-30T01:31:36;46.20;;;21.70;;
67757;SDS011;54562;47.620;18.786;2022-10-30T01:34:58;51.60;;;21.90;;
67757;SDS011;54562;47.620;18.786;2022-10-30T01:38:14;38.80;;;20.80;;
67757;SDS011;54562;47.620;18.786;2022-10-30T01:41:26;37.50;;;21.70;;
67757;SDS011;54562;47.620;18.786;2022-10-30T01:44:34;43.00;;;20.80;;
67757;SDS011;54562;47.620;18.786;2022-10-30T01:47:49;38.90;;;20.10;;
67757;SDS011;54562;47.620;18.786;2022-10-30T01:51:14;41.70;;;20.90;;
67757;SDS011;54562;47.620;18.786;2022-10-30T01:54:39;42.40;;;20.40;;
67757;SDS011;54562;47.620;18.786;2022-10-30T01:57:59;42.90;;;20.80;;
67757;SDS011;54562;47.620;18.786;2022-10-30T02:01:17;38.40;;;20.20;;
67757;SDS011;54562;47.620;18.786;2022-10-30T02:04:27;42.50;;;21.80;;
67757;SDS011;54562;47.620;18.786;2022-10-30T02:07:36;44.10;;;19.40;;
67757;SDS011;54562;47.620;18.786;2022-10-30T02:10:45;52.70;;;20.10;;
67757;SDS011;54562;47.620;18.786;2022-10-30T02:13:57;55.20;;;19.30;;
67757;SDS011;54562;47.620;18.786;2022-10-30T02:17:08;47.50;;;20.20;;
67757;SDS011;54562;47.620;18.786;2022-10-30T02:20:18;47.90;;;20.90;;
67757;SDS011;54562;47.620;18.786;2022-10-30T02:23:28;42.60;;;19.20;;
67757;SDS011;54562;47.620;18.786;2022-10-30T02:26:36;51.20;;;19.90;;
67757;SDS011;54562;47.620;18.786;2022-10-30T02:29:44;60.30;;;20.00;;
67757;SDS011;54562;47.620;18.786;2022-10-30T02:32:53;43.60;;;17.90;;
67757;SDS011;54562;47.620;18.786;2022-10-30T02:36:01;39.00;;;18.90;;
67757;SDS011;54562;47.620;18.786;2022-10-30T02:39:09;34.50;;;18.00;;
67757;SDS011;54562;47.620;18.786;2022-10-30T02:42:18;44.00;;;19.00;;
67757;SDS011;54562;47.620;18.786;2022-10-30T02:45:27;37.40;;;19.60;;
67757;SDS011;54562;47.620;18.786;2022-10-30T02:48:36;46.10;;;20.10;;
67757;SDS011;54562;47.620;18.786;2022-10-30T02:51:43;41.50;;;19.60;;
67757;SDS011;54562;47.620;18.786;2022-10-30T02:54:51;45.10;;;19.20;;
67757;SDS011;54562;47.620;18.786;2022-10-30T02:57:59;35.60;;;17.50;;
67757;SDS011;54562;47.620;18.786;2022-10-30T03:01:09;35.60;;;18.20;;
67757;SDS011;54562;47.620;18.786;2022-10-30T03:04:18;35.60;;;18.40;;
67757;SDS011;54562;47.620;18.786;2022-10-30T03:07:26;37.30;;;19.30;;
67757;SDS011;54562;47.620;18.786;2022-10-30T03:10:34;33.70;;;17.70;;
67757;SDS011;54562;47.620;18.786;2022-10-30T03:13:43;34.90;;;18.70;;
67757;SDS011;54562;47.620;18.786;2022-10-30T03:19:58;41.20;;;17.60;;
67757;SDS011;54562;47.620;18.786;2022-10-30T03:23:06;35.50;;;17.50;;
67757;SDS011;54562;47.620;18.786;2022-10-30T03:26:14;36.30;;;18.30;;
67757;SDS011;54562;47.620;18.786;2022-10-30T03:29:22;42.70;;;19.70;;
67757;SDS011;54562;47.620;18.786;2022-10-30T03:32:31;44.40;;;20.10;;
67757;SDS011;54562;47.620;18.786;2022-10-30T03:35:39;46.10;;;20.20;;
67757;SDS011;54562;47.620;18.786;2022-10-30T03:38:48;43.90;;;22.10;;
67757;SDS011;54562;47.620;18.786;2022-10-30T03:41:56;53.30;;;20.00;;
67757;SDS011;54562;47.620;18.786;2022-10-30T03:45:05;61.80;;;22.30;;
67757;SDS011;54562;47.620;18.786;2022-10-30T03:48:14;65.90;;;21.80;;
67757;SDS011;54562;47.620;18.786;2022-10-30T03:51:23;67.30;;;21.50;;
67757;SDS011;54562;47.620;18.786;2022-10-30T03:54:31;52.10;;;21.60;;
67757;SDS011;54562;47.620;18.786;2022-10-30T03:57:40;87.30;;;22.70;;
67757;SDS011;54562;47.620;18.786;2022-10-30T04:00:48;81.30;;;21.00;;
67757;SDS011;54562;47.620;18.786;2022-10-30T04:03:56;80.40;;;21.90;;
67757;SDS011;54562;47.620;18.786;2022-10-30T04:07:04;102.80;;;23.20;;
67757;SDS011;54562;47.620;18.786;2022-10-30T04:10:13;95.60;;;23.80;;
67757;SDS011;54562;47.620;18.786;2022-10-30T04:13:28;124.10;;;23.10;;
67757;SDS011;54562;47.620;18.786;2022-10-30T04:16:35;115.10;;;23.60;;
67757;SDS011;54562;47.620;18.786;2022-10-30T04:19:43;124.40;;;21.10;;
67757;SDS011;54562;47.620;18.786;2022-10-30T04:22:56;170.90;;;21.80;;
67757;SDS011;54562;47.620;18.786;2022-10-30T04:26:05;152.40;;;21.90;;
67757;SDS011;54562;47.620;18.786;2022-10-30T04:29:13;130.80;;;20.60;;
67757;SDS011;54562;47.620;18.786;2022-10-30T04:32:21;124.70;;;20.70;;
67757;SDS011;54562;47.620;18.786;2022-10-30T04:35:31;115.30;;;20.00;;
67757;SDS011;54562;47.620;18.786;2022-10-30T04:38:41;104.70;;;19.90;;
67757;SDS011;54562;47.620;18.786;2022-10-30T04:41:49;109.90;;;19.90;;
67757;SDS011;54562;47.620;18.786;2022-10-30T04:44:57;113.20;;;20.70;;
67757;SDS011;54562;47.620;18.786;2022-10-30T04:48:15;109.60;;;19.90;;
67757;SDS011;54562;47.620;18.786;2022-10-30T04:51:24;93.60;;;18.90;;
67757;SDS011;54562;47.620;18.786;2022-10-30T04:54:33;98.90;;;20.10;;
67757;SDS011;54562;47.620;18.786;2022-10-30T04:57:40;110.60;;;20.40;;
67757;SDS011;54562;47.620;18.786;2022-10-30T05:00:48;89.60;;;18.90;;
67757;SDS011;54562;47.620;18.786;2022-10-30T05:03:58;83.60;;;18.80;;
67757;SDS011;54562;47.620;18.786;2022-10-30T05:07:07;95.70;;;19.40;;
67757;SDS011;54562;47.620;18.786;2022-10-30T05:10:15;109.40;;;19.20;;
67757;SDS011;54562;47.620;18.786;2022-10-30T05:13:24;107.80;;;20.10;;
67757;SDS011;54562;47.620;18.786;2022-10-30T05:16:32;148.80;;;20.90;;
67757;SDS011;54562;47.620;18.786;2022-10-30T05:19:40;164.30;;;20.60;;
67757;SDS011;54562;47.620;18.786;2022-10-30T05:22:54;188.60;;;21.10;;
67757;SDS011;54562;47.620;18.786;2022-10-30T05:26:03;166.00;;;21.60;;
67757;SDS011;54562;47.620;18.786;2022-10-30T05:29:12;106.70;;;18.60;;
67757;SDS011;54562;47.620;18.786;2022-10-30T05:32:20;118.90;;;19.90;;
67757;SDS011;54562;47.620;18.786;2022-10-30T05:35:28;110.80;;;18.90;;
67757;SDS011;54562;47.620;18.786;2022-10-30T05:38:37;161.90;;;19.80;;
67757;SDS011;54562;47.620;18.786;2022-10-30T05:41:45;153.00;;;20.40;;
67757;SDS011;54562;47.620;18.786;2022-10-30T05:44:53;142.30;;;20.00;;
67757;SDS011;54562;47.620;18.786;2022-10-30T05:48:07;120.10;;;19.10;;
67757;SDS011;54562;47.620;18.786;2022-10-30T05:51:15;119.70;;;18.70;;
67757;SDS011;54562;47.620;18.786;2022-10-30T05:54:23;114.40;;;18.70;;
67757;SDS011;54562;47.620;18.786;2022-10-30T05:57:31;126.40;;;18.90;;
67757;SDS011;54562;47.620;18.786;2022-10-30T06:00:39;125.30;;;20.10;;
67757;SDS011;54562;47.620;18.786;2022-10-30T06:03:48;131.90;;;19.00;;
67757;SDS011;54562;47.620;18.786;2022-10-30T06:06:56;79.20;;;17.70;;
67757;SDS011;54562;47.620;18.786;2022-10-30T06:10:05;120.40;;;19.00;;
67757;SDS011;54562;47.620;18.786;2022-10-30T06:13:14;83.30;;;17.00;;
67757;SDS011;54562;47.620;18.786;2022-10-30T06:16:22;90.10;;;18.20;;
67757;SDS011;54562;47.620;18.786;2022-10-30T06:19:30;64.80;;;18.40;;
67757;SDS011;54562;47.620;18.786;2022-10-30T06:22:38;99.40;;;18.70;;
67757;SDS011;54562;47.620;18.786;2022-10-30T06:25:46;78.30;;;18.80;;
67757;SDS011;54562;47.620;18.786;2022-10-30T06:28:54;107.40;;;17.90;;
67757;SDS011;54562;47.620;18.786;2022-10-30T06:32:02;74.10;;;17.90;;
67757;SDS011;54562;47.620;18.786;2022-10-30T06:35:11;82.00;;;17.80;;
67757;SDS011;54562;47.620;18.786;2022-10-30T06:38:19;69.80;;;17.60;;
67757;SDS011;54562;47.620;18.786;2022-10-30T06:41:27;56.40;;;18.00;;
67757;SDS011;54562;47.620;18.786;2022-10-30T06:44:35;91.60;;;17.60;;
67757;SDS011;54562;47.620;18.786;2022-10-30T06:47:44;71.50;;;17.40;;
67757;SDS011;54562;47.620;18.786;2022-10-30T06:50:55;105.20;;;17.80;;
67757;SDS011;54562;47.620;18.786;2022-10-30T06:54:05;50.70;;;17.00;;
67757;SDS011;54562;47.620;18.786;2022-10-30T06:57:14;81.20;;;15.90;;
67757;SDS011;54562;47.620;18.786;2022-10-30T07:00:22;69.90;;;17.40;;
67757;SDS011;54562;47.620;18.786;2022-10-30T07:03:30;94.40;;;17.80;;
67757;SDS011;54562;47.620;18.786;2022-10-30T07:06:39;49.50;;;16.90;;
67757;SDS011;54562;47.620;18.786;2022-10-30T07:09:47;64.00;;;16.40;;
67757;SDS011;54562;47.620;18.786;2022-10-30T07:12:56;71.80;;;15.80;;
67757;SDS011;54562;47.620;18.786;2022-10-30T07:16:06;94.10;;;17.70;;
67757;SDS011;54562;47.620;18.786;2022-10-30T07:19:14;81.90;;;16.60;;
67757;SDS011;54562;47.620;18.786;2022-10-30T07:22:22;59.50;;;15.40;;
67757;SDS011;54562;47.620;18.786;2022-10-30T07:25:30;123.60;;;17.60;;
67757;SDS011;54562;47.620;18.786;2022-10-30T07:28:38;50.80;;;16.00;;
67757;SDS011;54562;47.620;18.786;2022-10-30T07:31:47;56.10;;;16.00;;
67757;SDS011;54562;47.620;18.786;2022-10-30T07:35:08;50.90;;;15.20;;
67757;SDS011;54562;47.620;18.786;2022-10-30T07:38:18;48.20;;;15.50;;
67757;SDS011;54562;47.620;18.786;2022-10-30T07:41:26;65.20;;;13.20;;
67757;SDS011;54562;47.620;18.786;2022-10-30T07:44:34;50.90;;;15.30;;
67757;SDS011;54562;47.620;18.786;2022-10-30T07:47:43;30.20;;;15.40;;
67757;SDS011;54562;47.620;18.786;2022-10-30T07:50:51;57.70;;;16.40;;
67757;SDS011;54562;47.620;18.786;2022-10-30T07:53:59;32.60;;;14.20;;
67757;SDS011;54562;47.620;18.786;2022-10-30T07:57:07;34.10;;;15.30;;
67757;SDS011;54562;47.620;18.786;2022-10-30T08:00:16;42.40;;;15.00;;
67757;SDS011;54562;47.620;18.786;2022-10-30T08:03:24;43.40;;;15.10;;
67757;SDS011;54562;47.620;18.786;2022-10-30T08:06:32;47.30;;;15.00;;
67757;SDS011;54562;47.620;18.786;2022-10-30T08:09:41;46.50;;;15.30;;
67757;SDS011;54562;47.620;18.786;2022-10-30T08:12:49;41.50;;;15.60;;
67757;SDS011;54562;47.620;18.786;2022-10-30T08:15:57;36.40;;;15.80;;
67757;SDS011;54562;47.620;18.786;2022-10-30T08:19:05;29.10;;;14.80;;
67757;SDS011;54562;47.620;18.786;2022-10-30T08:22:13;30.80;;;15.10;;
67757;SDS011;54562;47.620;18.786;2022-10-30T08:25:23;35.70;;;14.10;;
67757;SDS011;54562;47.620;18.786;2022-10-30T08:28:33;39.80;;;15.90;;
67757;SDS011;54562;47.620;18.786;2022-10-30T08:31:41;49.30;;;17.10;;
67757;SDS011;54562;47.620;18.786;2022-10-30T08:34:48;38.60;;;15.70;;
67757;SDS011;54562;47.620;18.786;2022-10-30T08:37:57;38.60;;;15.90;;
67757;SDS011;54562;47.620;18.786;2022-10-30T08:44:13;39.50;;;15.20;;
67757;SDS011;54562;47.620;18.786;2022-10-30T08:47:21;30.50;;;15.40;;
67757;SDS011;54562;47.620;18.786;2022-10-30T08:50:29;34.60;;;15.20;;
67757;SDS011;54562;47.620;18.786;2022-10-30T08:53:38;35.60;;;16.50;;
67757;SDS011;54562;47.620;18.786;2022-10-30T08:56:46;31.70;;;15.10;;
67757;SDS011;54562;47.620;18.786;2022-10-30T08:59:55;28.80;;;14.80;;
67757;SDS011;54562;47.620;18.786;2022-10-30T09:03:03;31.50;;;16.00;;
67757;SDS011;54562;47.620;18.786;2022-10-30T09:06:11;33.20;;;15.20;;
67757;SDS011;54562;47.620;18.786;2022-10-30T09:09:19;29.70;;;15.00;;
67757;SDS011;54562;47.620;18.786;2022-10-30T09:12:27;29.30;;;15.40;;
67757;SDS011;54562;47.620;18.786;2022-10-30T09:15:35;26.40;;;14.30;;
67757;SDS011;54562;47.620;18.786;2022-10-30T09:18:43;29.10;;;15.00;;
67757;SDS011;54562;47.620;18.786;2022-10-30T09:21:52;29.90;;;14.90;;
67757;SDS011;54562;47.620;18.786;2022-10-30T09:24:59;30.70;;;15.70;;
67757;SDS011;54562;47.620;18.786;2022-10-30T09:28:08;27.30;;;15.00;;
67757;SDS011;54562;47.620;18.786;2022-10-30T09:31:16;24.80;;;13.20;;
67757;SDS011;54562;47.620;18.786;2022-10-30T09:34:24;25.20;;;13.60;;
67757;SDS011;54562;47.620;18.786;2022-10-30T09:37:36;26.50;;;14.40;;
67757;SDS011;54562;47.620;18.786;2022-10-30T09:40:56;30.10;;;13.80;;
67757;SDS011;54562;47.620;18.786;2022-10-30T09:44:33;22.90;;;13.10;;
67757;SDS011;54562;47.620;18.786;2022-10-30T09:48:22;22.50;;;13.70;;
67757;SDS011;54562;47.620;18.786;2022-10-30T09:52:06;24.30;;;14.20;;
67757;SDS011;54562;47.620;18.786;2022-10-30T09:55:29;23.10;;;13.40;;
67757;SDS011;54562;47.620;18.786;2022-10-30T09:59:06;24.50;;;13.40;;
67757;SDS011;54562;47.620;18.786;2022-10-30T10:02:31;24.10;;;13.10;;
67757;SDS011;54562;47.620;18.786;2022-10-30T10:08:55;23.00;;;13.00;;
67757;SDS011;54562;47.620;18.786;2022-10-30T10:12:08;29.50;;;15.10;;
67757;SDS011;54562;47.620;18.786;2022-10-30T10:15:32;28.60;;;14.80;;
67757;SDS011;54562;47.620;18.786;2022-10-30T10:18:46;28.30;;;14.50;;
67757;SDS011;54562;47.620;18.786;2022-10-30T10:21:59;28.50;;;14.90;;
67757;SDS011;54562;47.620;18.786;2022-10-30T10:25:13;28.00;;;15.50;;
67757;SDS011;54562;47.620;18.786;2022-10-30T10:28:46;28.50;;;15.00;;
67757;SDS011;54562;47.620;18.786;2022-10-30T10:36:17;26.60;;;13.70;;
67757;SDS011;54562;47.620;18.786;2022-10-30T10:39:44;26.40;;;13.10;;
67757;SDS011;54562;47.620;18.786;2022-10-30T10:43:14;26.60;;;13.90;;
67757;SDS011;54562;47.620;18.786;2022-10-30T10:46:39;25.90;;;13.90;;
67757;SDS011;54562;47.620;18.786;2022-10-30T10:50:09;24.10;;;13.50;;
67757;SDS011;54562;47.620;18.786;2022-10-30T10:53:28;25.70;;;13.50;;
67757;SDS011;54562;47.620;18.786;2022-10-30T10:56:44;25.20;;;14.20;;
67757;SDS011;54562;47.620;18.786;2022-10-30T10:59:57;26.70;;;14.10;;
67757;SDS011;54562;47.620;18.786;2022-10-30T11:03:14;24.10;;;14.40;;
67757;SDS011;54562;47.620;18.786;2022-10-30T11:06:27;24.60;;;13.90;;
67757;SDS011;54562;47.620;18.786;2022-10-30T11:09:37;26.20;;;14.00;;
67757;SDS011;54562;47.620;18.786;2022-10-30T11:12:46;25.90;;;14.20;;
67757;SDS011;54562;47.620;18.786;2022-10-30T11:16:02;22.30;;;13.40;;
67757;SDS011;54562;47.620;18.786;2022-10-30T11:19:18;24.00;;;13.30;;
67757;SDS011;54562;47.620;18.786;2022-10-30T11:22:32;22.60;;;13.80;;
67757;SDS011;54562;47.620;18.786;2022-10-30T11:25:43;22.80;;;14.10;;
67757;SDS011;54562;47.620;18.786;2022-10-30T11:28:53;22.20;;;13.80;;
67757;SDS011;54562;47.620;18.786;2022-10-30T11:32:05;25.00;;;14.00;;
67757;SDS011;54562;47.620;18.786;2022-10-30T11:35:23;23.70;;;13.70;;
67757;SDS011;54562;47.620;18.786;2022-10-30T11:38:32;24.60;;;14.20;;
67757;SDS011;54562;47.620;18.786;2022-10-30T11:41:40;25.40;;;14.30;;
67757;SDS011;54562;47.620;18.786;2022-10-30T11:44:50;24.40;;;14.10;;
67757;SDS011;54562;47.620;18.786;2022-10-30T11:48:01;20.40;;;13.50;;
67757;SDS011;54562;47.620;18.786;2022-10-30T11:51:30;21.80;;;11.80;;
67757;SDS011;54562;47.620;18.786;2022-10-30T11:54:44;21.50;;;12.90;;
67757;SDS011;54562;47.620;18.786;2022-10-30T11:57:57;22.90;;;13.50;;
67757;SDS011;54562;47.620;18.786;2022-10-30T12:01:14;21.70;;;12.60;;
67757;SDS011;54562;47.620;18.786;2022-10-30T12:04:28;21.10;;;12.90;;
67757;SDS011;54562;47.620;18.786;2022-10-30T12:07:37;25.70;;;14.00;;
67757;SDS011;54562;47.620;18.786;2022-10-30T12:10:52;24.20;;;13.70;;
67757;SDS011;54562;47.620;18.786;2022-10-30T12:14:05;22.00;;;14.00;;
67757;SDS011;54562;47.620;18.786;2022-10-30T12:17:23;23.20;;;14.40;;
67757;SDS011;54562;47.620;18.786;2022-10-30T12:20:32;21.90;;;13.00;;
67757;SDS011;54562;47.620;18.786;2022-10-30T12:23:51;21.40;;;13.40;;
67757;SDS011;54562;47.620;18.786;2022-10-30T12:27:09;21.90;;;13.20;;
67757;SDS011;54562;47.620;18.786;2022-10-30T12:30:26;21.30;;;12.40;;
67757;SDS011;54562;47.620;18.786;2022-10-30T12:33:39;19.40;;;12.00;;
67757;SDS011;54562;47.620;18.786;2022-10-30T12:36:58;22.90;;;14.00;;
67757;SDS011;54562;47.620;18.786;2022-10-30T12:40:13;20.10;;;12.80;;
67757;SDS011;54562;47.620;18.786;2022-10-30T12:43:26;21.80;;;12.90;;
67757;SDS011;54562;47.620;18.786;2022-10-30T12:46:42;21.80;;;12.70;;
67757;SDS011;54562;47.620;18.786;2022-10-30T12:49:56;23.50;;;13.70;;
67757;SDS011;54562;47.620;18.786;2022-10-30T12:53:23;20.80;;;12.70;;
67757;SDS011;54562;47.620;18.786;2022-10-30T12:56:39;22.60;;;12.70;;
67757;SDS011;54562;47.620;18.786;2022-10-30T12:59:58;22.60;;;13.30;;
67757;SDS011;54562;47.620;18.786;2022-10-30T13:03:23;19.70;;;13.00;;
67757;SDS011;54562;47.620;18.786;2022-10-30T13:06:38;22.70;;;13.50;;
67757;SDS011;54562;47.620;18.786;2022-10-30T13:10:03;26.40;;;15.30;;
67757;SDS011;54562;47.620;18.786;2022-10-30T13:13:25;19.90;;;12.30;;
67757;SDS011;54562;47.620;18.786;2022-10-30T13:16:38;23.00;;;13.40;;
67757;SDS011;54562;47.620;18.786;2022-10-30T13:19:46;23.60;;;13.10;;
67757;SDS011;54562;47.620;18.786;2022-10-30T13:22:59;21.10;;;13.50;;
67757;SDS011;54562;47.620;18.786;2022-10-30T13:26:20;23.00;;;14.60;;
67757;SDS011;54562;47.620;18.786;2022-10-30T13:29:43;24.80;;;14.90;;
67757;SDS011;54562;47.620;18.786;2022-10-30T13:33:03;23.60;;;14.00;;
67757;SDS011;54562;47.620;18.786;2022-10-30T13:36:23;22.80;;;13.70;;
67757;SDS011;54562;47.620;18.786;2022-10-30T13:39:42;23.80;;;14.00;;
67757;SDS011;54562;47.620;18.786;2022-10-30T13:43:17;21.30;;;13.50;;
67757;SDS011;54562;47.620;18.786;2022-10-30T13:46:45;26.00;;;14.60;;
67757;SDS011;54562;47.620;18.786;2022-10-30T13:50:27;24.30;;;14.00;;
67757;SDS011;54562;47.620;18.786;2022-10-30T13:53:55;24.40;;;14.60;;
67757;SDS011;54562;47.620;18.786;2022-10-30T13:57:16;26.10;;;15.20;;
67757;SDS011;54562;47.620;18.786;2022-10-30T14:00:33;26.50;;;14.60;;
67757;SDS011;54562;47.620;18.786;2022-10-30T14:04:01;28.20;;;15.30;;
67757;SDS011;54562;47.620;18.786;2022-10-30T14:10:47;40.10;;;18.50;;
67757;SDS011;54562;47.620;18.786;2022-10-30T14:14:22;34.30;;;17.90;;
67757;SDS011;54562;47.620;18.786;2022-10-30T14:17:34;33.70;;;17.80;;
67757;SDS011;54562;47.620;18.786;2022-10-30T14:20:43;32.20;;;17.80;;
67757;SDS011;54562;47.620;18.786;2022-10-30T14:24:02;33.70;;;19.20;;
67757;SDS011;54562;47.620;18.786;2022-10-30T14:27:27;32.20;;;18.40;;
67757;SDS011;54562;47.620;18.786;2022-10-30T14:33:46;28.90;;;16.50;;
67757;SDS011;54562;47.620;18.786;2022-10-30T14:36:55;28.80;;;16.50;;
67757;SDS011;54562;47.620;18.786;2022-10-30T14:40:35;29.80;;;17.30;;
67757;SDS011;54562;47.620;18.786;2022-10-30T14:47:52;30.70;;;16.80;;
67757;SDS011;54562;47.620;18.786;2022-10-30T14:51:10;28.40;;;17.10;;
67757;SDS011;54562;47.620;18.786;2022-10-30T14:54:23;30.80;;;16.80;;
67757;SDS011;54562;47.620;18.786;2022-10-30T14:57:47;29.70;;;16.60;;
67757;SDS011;54562;47.620;18.786;2022-10-30T15:04:58;30.90;;;16.80;;
67757;SDS011;54562;47.620;18.786;2022-10-30T15:08:37;30.60;;;18.10;;
67757;SDS011;54562;47.620;18.786;2022-10-30T15:12:06;32.40;;;17.30;;
67757;SDS011;54562;47.620;18.786;2022-10-30T15:15:28;36.40;;;19.50;;
67757;SDS011;54562;47.620;18.786;2022-10-30T15:18:39;35.10;;;19.40;;
67757;SDS011;54562;47.620;18.786;2022-10-30T15:21:53;34.70;;;18.80;;
67757;SDS011;54562;47.620;18.786;2022-10-30T15:25:03;35.40;;;17.50;;
67757;SDS011;54562;47.620;18.786;2022-10-30T15:28:21;29.00;;;15.90;;
67757;SDS011;54562;47.620;18.786;2022-10-30T15:31:31;31.10;;;17.30;;
67757;SDS011;54562;47.620;18.786;2022-10-30T15:34:39;31.40;;;17.70;;
67757;SDS011;54562;47.620;18.786;2022-10-30T15:38:04;34.50;;;18.00;;
67757;SDS011;54562;47.620;18.786;2022-10-30T15:41:15;87.70;;;52.10;;
67757;SDS011;54562;47.620;18.786;2022-10-30T15:44:24;118.60;;;37.60;;
67757;SDS011;54562;47.620;18.786;2022-10-30T15:47:35;86.40;;;36.80;;
67757;SDS011;54562;47.620;18.786;2022-10-30T15:50:57;46.00;;;25.20;;
67757;SDS011;54562;47.620;18.786;2022-10-30T15:54:12;35.90;;;20.70;;
67757;SDS011;54562;47.620;18.786;2022-10-30T15:57:29;34.50;;;19.30;;
67757;SDS011;54562;47.620;18.786;2022-10-30T16:01:00;30.90;;;17.50;;
67757;SDS011;54562;47.620;18.786;2022-10-30T16:04:15;35.10;;;19.90;;
67757;SDS011;54562;47.620;18.786;2022-10-30T16:07:25;32.30;;;17.70;;
67757;SDS011;54562;47.620;18.786;2022-10-30T16:10:35;35.90;;;19.40;;
67757;SDS011;54562;47.620;18.786;2022-10-30T16:13:45;33.40;;;19.10;;
67757;SDS011;54562;47.620;18.786;2022-10-30T16:16:53;35.00;;;18.70;;
67757;SDS011;54562;47.620;18.786;2022-10-30T16:20:06;28.80;;;17.30;;
67757;SDS011;54562;47.620;18.786;2022-10-30T16:23:17;37.00;;;19.00;;
67757;SDS011;54562;47.620;18.786;2022-10-30T16:26:28;35.90;;;20.00;;
67757;SDS011;54562;47.620;18.786;2022-10-30T16:29:37;38.10;;;20.40;;
67757;SDS011;54562;47.620;18.786;2022-10-30T16:32:50;40.70;;;22.20;;
67757;SDS011;54562;47.620;18.786;2022-10-30T16:36:00;37.20;;;20.00;;
67757;SDS011;54562;47.620;18.786;2022-10-30T16:39:10;37.40;;;20.00;;
67757;SDS011;54562;47.620;18.786;2022-10-30T16:42:23;49.80;;;20.70;;
67757;SDS011;54562;47.620;18.786;2022-10-30T16:45:51;33.00;;;18.90;;
67757;SDS011;54562;47.620;18.786;2022-10-30T16:49:02;37.60;;;19.50;;
67757;SDS011;54562;47.620;18.786;2022-10-30T16:52:14;39.10;;;19.10;;
67757;SDS011;54562;47.620;18.786;2022-10-30T16:55:24;36.60;;;19.40;;
67757;SDS011;54562;47.620;18.786;2022-10-30T16:58:34;40.90;;;20.00;;
67757;SDS011;54562;47.620;18.786;2022-10-30T17:01:43;52.00;;;17.60;;
67757;SDS011;54562;47.620;18.786;2022-10-30T17:05:02;56.10;;;18.60;;
67757;SDS011;54562;47.620;18.786;2022-10-30T17:08:35;53.00;;;19.20;;
67757;SDS011;54562;47.620;18.786;2022-10-30T17:11:59;64.60;;;18.60;;
67757;SDS011;54562;47.620;18.786;2022-10-30T17:15:13;103.20;;;18.60;;
67757;SDS011;54562;47.620;18.786;2022-10-30T17:18:30;69.70;;;17.80;;
67757;SDS011;54562;47.620;18.786;2022-10-30T17:21:40;95.10;;;17.90;;
67757;SDS011;54562;47.620;18.786;2022-10-30T17:24:49;67.00;;;17.20;;
67757;SDS011;54562;47.620;18.786;2022-10-30T17:27:57;59.60;;;17.00;;
67757;SDS011;54562;47.620;18.786;2022-10-30T17:31:19;119.20;;;20.10;;
67757;SDS011;54562;47.620;18.786;2022-10-30T17:34:31;48.50;;;18.10;;
67757;SDS011;54562;47.620;18.786;2022-10-30T17:37:43;76.50;;;18.80;;
67757;SDS011;54562;47.620;18.786;2022-10-30T17:40:52;67.20;;;19.00;;
67757;SDS011;54562;47.620;18.786;2022-10-30T17:44:00;78.80;;;18.30;;
67757;SDS011;54562;47.620;18.786;2022-10-30T17:47:15;39.00;;;18.60;;
67757;SDS011;54562;47.620;18.786;2022-10-30T17:50:24;69.40;;;18.00;;
67757;SDS011;54562;47.620;18.786;2022-10-30T17:53:33;97.20;;;21.30;;
67757;SDS011;54562;47.620;18.786;2022-10-30T17:56:42;100.40;;;22.30;;
67757;SDS011;54562;47.620;18.786;2022-10-30T17:59:50;77.80;;;18.30;;
67757;SDS011;54562;47.620;18.786;2022-10-30T18:02:58;76.70;;;19.40;;
67757;SDS011;54562;47.620;18.786;2022-10-30T18:06:15;100.50;;;21.00;;
67757;SDS011;54562;47.620;18.786;2022-10-30T18:09:25;95.50;;;18.00;;
67757;SDS011;54562;47.620;18.786;2022-10-30T18:12:33;63.90;;;17.10;;
67757;SDS011;54562;47.620;18.786;2022-10-30T18:15:42;98.20;;;17.50;;
67757;SDS011;54562;47.620;18.786;2022-10-30T18:18:53;91.90;;;17.90;;
67757;SDS011;54562;47.620;18.786;2022-10-30T18:22:05;97.60;;;16.80;;
67757;SDS011;54562;47.620;18.786;2022-10-30T18:25:18;86.10;;;16.20;;
67757;SDS011;54562;47.620;18.786;2022-10-30T18:28:27;61.90;;;15.20;;
67757;SDS011;54562;47.620;18.786;2022-10-30T18:31:36;90.40;;;15.90;;
67757;SDS011;54562;47.620;18.786;2022-10-30T18:34:45;67.30;;;16.30;;
67757;SDS011;54562;47.620;18.786;2022-10-30T18:37:52;85.10;;;16.50;;
67757;SDS011;54562;47.620;18.786;2022-10-30T18:41:00;50.40;;;14.80;;
67757;SDS011;54562;47.620;18.786;2022-10-30T18:44:12;43.80;;;16.70;;
67757;SDS011;54562;47.620;18.786;2022-10-30T18:47:21;109.80;;;17.20;;
67757;SDS011;54562;47.620;18.786;2022-10-30T18:50:30;107.30;;;17.30;;
67757;SDS011;54562;47.620;18.786;2022-10-30T18:53:38;77.70;;;17.30;;
67757;SDS011;54562;47.620;18.786;2022-10-30T18:56:48;45.10;;;14.30;;
67757;SDS011;54562;47.620;18.786;2022-10-30T18:59:56;68.60;;;14.50;;